sensor_id;sensor_type;location;lat;lon;timestamp;pressure;altitude;pressure_sealevel;temperature;humidity
20424;BME280;10371;49.042;8.002;2024-01-07T00:00:50;99392.16;;;4.82;100.00
20424;BME280;10371;49.042;8.002;2024-01-07T00:01:50;99392.97;;;4.83;100.00
20424;BME280;10371;49.042;8.002;2024-01-07T00:02:50;99392.97;;;4.83;100.00
20424;BME280;10371;49.042;8.002;2024-01-07T00:03:51;99393.06;;;4.81;100.00
20424;BME280;10371;49.042;8.002;2024-01-07T00:04:52;99394.75;;;4.82;100.00
20424;BME280;10371;49.042;8.002;2024-01-07T00:05:52;99396.38;;;4.83;100.00
20424;BME280;10371;49.042;8.002;2024-01-07T00:06:52;99396.38;;;4.83;100.00
20424;BME280;10371;49.042;8.002;2024-01-07T00:07:53;99393.72;;;4.85;100.00
20424;BME280;10371;49.042;8.002;2024-01-07T00:08:53;99397.13;;;4.85;100.00
20424;BME280;10371;49.042;8.002;2024-01-07T00:09:53;99391.13;;;4.85;100.00
20424;BME280;10371;49.042;8.002;2024-01-07T00:10:54;99394.63;;;4.84;100.00
20424;BME280;10371;49.042;8.002;2024-01-07T00:11:54;99402.28;;;4.85;100.00
20424;BME280;10371;49.042;8.002;2024-01-07T00:12:54;99397.22;;;4.84;100.00
20424;BME280;10371;49.042;8.002;2024-01-07T00:13:54;99392.88;;;4.84;100.00
20424;BME280;10371;49.042;8.002;2024-01-07T00:14:55;99398.88;;;4.85;100.00
20424;BME280;10371;49.042;8.002;2024-01-07T00:15:55;99394.00;;;4.80;100.00
20424;BME280;10371;49.042;8.002;2024-01-07T00:16:55;99397.31;;;4.82;100.00
20424;BME280;10371;49.042;8.002;2024-01-07T00:17:56;99389.47;;;4.84;100.00
20424;BME280;10371;49.042;8.002;2024-01-07T00:18:56;99402.06;;;4.88;100.00
20424;BME280;10371;49.042;8.002;2024-01-07T00:19:56;99394.53;;;4.85;100.00
20424;BME280;10371;49.042;8.002;2024-01-07T00:20:57;99395.25;;;4.87;100.00
20424;BME280;10371;49.042;8.002;2024-01-07T00:21:57;99402.97;;;4.87;100.00
20424;BME280;10371;49.042;8.002;2024-01-07T00:22:58;99394.75;;;4.82;100.00
20424;BME280;10371;49.042;8.002;2024-01-07T00:23:58;99399.78;;;4.84;100.00
20424;BME280;10371;49.042;8.002;2024-01-07T00:24:58;99396.38;;;4.83;100.00
20424;BME280;10371;49.042;8.002;2024-01-07T00:25:58;99396.47;;;4.82;100.00
20424;BME280;10371;49.042;8.002;2024-01-07T00:26:59;99393.81;;;4.83;100.00
20424;BME280;10371;49.042;8.002;2024-01-07T00:27:59;99398.97;;;4.83;100.00
20424;BME280;10371;49.042;8.002;2024-01-07T00:29:00;99398.97;;;4.83;100.00
20424;BME280;10371;49.042;8.002;2024-01-07T00:30:00;99400.59;;;4.84;100.00
20424;BME280;10371;49.042;8.002;2024-01-07T00:31:00;99400.59;;;4.84;100.00
20424;BME280;10371;49.042;8.002;2024-01-07T00:32:01;99398.97;;;4.83;100.00
20424;BME280;10371;49.042;8.002;2024-01-07T00:33:02;99406.69;;;4.83;100.00
20424;BME280;10371;49.042;8.002;2024-01-07T00:34:02;99398.97;;;4.83;100.00
20424;BME280;10371;49.042;8.002;2024-01-07T00:35:03;99400.59;;;4.84;100.00
20424;BME280;10371;49.042;8.002;2024-01-07T00:36:03;99401.97;;;4.90;100.00
20424;BME280;10371;49.042;8.002;2024-01-07T00:37:03;99405.56;;;4.87;100.00
20424;BME280;10371;49.042;8.002;2024-01-07T00:38:04;99405.41;;;4.90;100.00
20424;BME280;10371;49.042;8.002;2024-01-07T00:39:05;99405.81;;;4.97;100.00
20424;BME280;10371;49.042;8.002;2024-01-07T00:40:06;99404.78;;;5.00;100.00
20424;BME280;10371;49.042;8.002;2024-01-07T00:41:07;99404.41;;;5.06;100.00
20424;BME280;10371;49.042;8.002;2024-01-07T00:42:07;99406.97;;;5.06;100.00
20424;BME280;10371;49.042;8.002;2024-01-07T00:43:07;99401.06;;;5.04;100.00
20424;BME280;10371;49.042;8.002;2024-01-07T00:44:08;99396.78;;;5.04;100.00
20424;BME280;10371;49.042;8.002;2024-01-07T00:45:08;99402.84;;;5.03;100.00
20424;BME280;10371;49.042;8.002;2024-01-07T00:46:09;99402.34;;;5.11;100.00
20424;BME280;10371;49.042;8.002;2024-01-07T00:47:09;99407.72;;;5.08;100.00
20424;BME280;10371;49.042;8.002;2024-01-07T00:48:09;99404.94;;;5.11;100.00
20424;BME280;10371;49.042;8.002;2024-01-07T00:49:09;99409.69;;;5.17;100.00
20424;BME280;10371;49.042;8.002;2024-01-07T00:50:10;99413.91;;;5.18;100.00
20424;BME280;10371;49.042;8.002;2024-01-07T00:51:10;99410.63;;;5.16;100.00
20424;BME280;10371;49.042;8.002;2024-01-07T00:52:10;99410.63;;;5.16;100.00
20424;BME280;10371;49.042;8.002;2024-01-07T00:53:11;99416.59;;;5.17;100.00
20424;BME280;10371;49.042;8.002;2024-01-07T00:54:11;99414.84;;;5.17;100.00
20424;BME280;10371;49.042;8.002;2024-01-07T00:55:11;99422.38;;;5.20;100.00
20424;BME280;10371;49.042;8.002;2024-01-07T00:56:12;99422.09;;;5.25;100.00
20424;BME280;10371;49.042;8.002;2024-01-07T00:57:12;99414.34;;;5.25;100.00
20424;BME280;10371;49.042;8.002;2024-01-07T00:58:12;99419.81;;;5.20;100.00
20424;BME280;10371;49.042;8.002;2024-01-07T00:59:12;99421.66;;;5.18;100.00
20424;BME280;10371;49.042;8.002;2024-01-07T01:00:13;99421.78;;;5.17;100.00
20424;BME280;10371;49.042;8.002;2024-01-07T01:01:13;99422.59;;;5.17;100.00
20424;BME280;10371;49.042;8.002;2024-01-07T01:02:13;99422.19;;;5.23;100.00
20424;BME280;10371;49.042;8.002;2024-01-07T01:03:14;99427.88;;;5.28;100.00
20424;BME280;10371;49.042;8.002;2024-01-07T01:04:14;99420.75;;;5.32;100.00
20424;BME280;10371;49.042;8.002;2024-01-07T01:05:14;99429.44;;;5.31;100.00
20424;BME280;10371;49.042;8.002;2024-01-07T01:06:15;99420.97;;;5.29;100.00
20424;BME280;10371;49.042;8.002;2024-01-07T01:07:16;99423.25;;;5.33;100.00
20424;BME280;10371;49.042;8.002;2024-01-07T01:08:16;99423.03;;;5.36;100.00
20424;BME280;10371;49.042;8.002;2024-01-07T01:09:16;99421.94;;;5.41;100.00
20424;BME280;10371;49.042;8.002;2024-01-07T01:10:17;99425.41;;;5.40;100.00
20424;BME280;10371;49.042;8.002;2024-01-07T01:11:17;99428.94;;;5.38;100.00
20424;BME280;10371;49.042;8.002;2024-01-07T01:12:18;99423.66;;;5.40;100.00
20424;BME280;10371;49.042;8.002;2024-01-07T01:13:18;99425.34;;;5.41;100.00
20424;BME280;10371;49.042;8.002;2024-01-07T01:14:18;99426.91;;;5.44;100.00
20424;BME280;10371;49.042;8.002;2024-01-07T01:15:19;99433.16;;;5.40;100.00
20424;BME280;10371;49.042;8.002;2024-01-07T01:16:19;99434.50;;;5.45;100.00
20424;BME280;10371;49.042;8.002;2024-01-07T01:17:19;99425.88;;;5.46;100.00
20424;BME280;10371;49.042;8.002;2024-01-07T01:18:19;99430.81;;;5.49;100.00
20424;BME280;10371;49.042;8.002;2024-01-07T01:19:20;99434.44;;;5.47;100.00
20424;BME280;10371;49.042;8.002;2024-01-07T01:20:20;99431.53;;;5.38;100.00
20424;BME280;10371;49.042;8.002;2024-01-07T01:21:20;99439.25;;;5.38;100.00
20424;BME280;10371;49.042;8.002;2024-01-07T01:22:21;99431.72;;;5.35;100.00
20424;BME280;10371;49.042;8.002;2024-01-07T01:23:21;99432.56;;;5.36;100.00
20424;BME280;10371;49.042;8.002;2024-01-07T01:24:21;99435.94;;;5.36;100.00
20424;BME280;10371;49.042;8.002;2024-01-07T01:25:22;99438.81;;;5.32;100.00
20424;BME280;10371;49.042;8.002;2024-01-07T01:26:22;99443.91;;;5.33;100.00
20424;BME280;10371;49.042;8.002;2024-01-07T01:27:22;99440.56;;;5.31;100.00
20424;BME280;10371;49.042;8.002;2024-01-07T01:28:22;99444.44;;;5.38;100.00
20424;BME280;10371;49.042;8.002;2024-01-07T01:29:23;99440.16;;;5.37;100.00
20424;BME280;10371;49.042;8.002;2024-01-07T01:30:23;99441.53;;;5.30;100.00
20424;BME280;10371;49.042;8.002;2024-01-07T01:31:23;99441.53;;;5.30;100.00
20424;BME280;10371;49.042;8.002;2024-01-07T01:32:23;99445.75;;;5.31;100.00
20424;BME280;10371;49.042;8.002;2024-01-07T01:33:24;99443.69;;;5.36;100.00
20424;BME280;10371;49.042;8.002;2024-01-07T01:34:24;99444.31;;;5.40;100.00
20424;BME280;10371;49.042;8.002;2024-01-07T01:35:24;99446.59;;;5.45;100.00
20424;BME280;10371;49.042;8.002;2024-01-07T01:36:24;99453.22;;;5.49;100.00
20424;BME280;10371;49.042;8.002;2024-01-07T01:37:25;99440.41;;;5.47;100.00
20424;BME280;10371;49.042;8.002;2024-01-07T01:38:25;99448.03;;;5.49;100.00
20424;BME280;10371;49.042;8.002;2024-01-07T01:39:25;99441.97;;;5.50;100.00
20424;BME280;10371;49.042;8.002;2024-01-07T01:40:25;99451.56;;;5.48;100.00
20424;BME280;10371;49.042;8.002;2024-01-07T01:41:26;99444.22;;;5.42;100.00
20424;BME280;10371;49.042;8.002;2024-01-07T01:42:26;99446.59;;;5.45;100.00
20424;BME280;10371;49.042;8.002;2024-01-07T01:43:27;99446.81;;;5.42;100.00
20424;BME280;10371;49.042;8.002;2024-01-07T01:44:28;99448.78;;;5.38;100.00
20424;BME280;10371;49.042;8.002;2024-01-07T01:45:28;99447.84;;;5.39;100.00
20424;BME280;10371;49.042;8.002;2024-01-07T01:46:29;99450.38;;;5.26;100.00
20424;BME280;10371;49.042;8.002;2024-01-07T01:47:30;99443.16;;;5.19;100.00
20424;BME280;10371;49.042;8.002;2024-01-07T01:48:31;99441.59;;;5.16;100.00
20424;BME280;10371;49.042;8.002;2024-01-07T01:49:31;99448.41;;;5.17;100.00
20424;BME280;10371;49.042;8.002;2024-01-07T01:50:32;99446.94;;;5.13;100.00
20424;BME280;10371;49.042;8.002;2024-01-07T01:51:32;99443.63;;;5.11;100.00
20424;BME280;10371;49.042;8.002;2024-01-07T01:52:33;99445.06;;;5.15;100.00
20424;BME280;10371;49.042;8.002;2024-01-07T01:53:35;99442.50;;;5.15;100.00
20424;BME280;10371;49.042;8.002;2024-01-07T01:54:36;99448.69;;;5.12;100.00
20424;BME280;10371;49.042;8.002;2024-01-07T01:55:37;99439.16;;;5.00;100.00
20424;BME280;10371;49.042;8.002;2024-01-07T01:56:37;99449.66;;;4.97;100.00
20424;BME280;10371;49.042;8.002;2024-01-07T01:57:39;99450.69;;;4.95;100.00
20424;BME280;10371;49.042;8.002;2024-01-07T01:58:40;99451.63;;;4.93;100.00
20424;BME280;10371;49.042;8.002;2024-01-07T01:59:42;99451.44;;;4.97;100.00
20424;BME280;10371;49.042;8.002;2024-01-07T02:00:43;99444.72;;;4.94;100.00
20424;BME280;10371;49.042;8.002;2024-01-07T02:01:44;99452.63;;;4.91;100.00
20424;BME280;10371;49.042;8.002;2024-01-07T02:02:44;99450.16;;;4.89;100.00
20424;BME280;10371;49.042;8.002;2024-01-07T02:03:45;99448.69;;;4.85;100.00
20424;BME280;10371;49.042;8.002;2024-01-07T02:04:46;99439.28;;;4.84;100.00
20424;BME280;10371;49.042;8.002;2024-01-07T02:05:48;99447.75;;;4.86;100.00
20424;BME280;10371;49.042;8.002;2024-01-07T02:06:48;99445.38;;;4.83;100.00
20424;BME280;10371;49.042;8.002;2024-01-07T02:07:49;99441.16;;;4.82;100.00
20424;BME280;10371;49.042;8.002;2024-01-07T02:08:50;99451.56;;;4.81;100.00
20424;BME280;10371;49.042;8.002;2024-01-07T02:09:50;99451.56;;;4.81;100.00
20424;BME280;10371;49.042;8.002;2024-01-07T02:10:50;99449.09;;;4.79;100.00
20424;BME280;10371;49.042;8.002;2024-01-07T02:12:11;99455.16;;;4.78;100.00
20424;BME280;10371;49.042;8.002;2024-01-07T02:13:11;99451.66;;;4.79;100.00
20424;BME280;10371;49.042;8.002;2024-01-07T02:14:12;99453.41;;;4.79;100.00
20424;BME280;10371;49.042;8.002;2024-01-07T02:15:12;99452.56;;;4.78;100.00
20424;BME280;10371;49.042;8.002;2024-01-07T02:16:12;99451.84;;;4.76;100.00
20424;BME280;10371;49.042;8.002;2024-01-07T02:17:13;99450.09;;;4.77;100.00
20424;BME280;10371;49.042;8.002;2024-01-07T02:18:14;99444.41;;;4.72;100.00
20424;BME280;10371;49.042;8.002;2024-01-07T02:19:14;99444.94;;;4.77;100.00
20424;BME280;10371;49.042;8.002;2024-01-07T02:20:14;99446.78;;;4.75;100.00
20424;BME280;10371;49.042;8.002;2024-01-07T02:21:15;99453.59;;;4.76;100.00
20424;BME280;10371;49.042;8.002;2024-01-07T02:22:16;99457.84;;;4.77;100.00
20424;BME280;10371;49.042;8.002;2024-01-07T02:23:16;99449.44;;;4.73;100.00
20424;BME280;10371;49.042;8.002;2024-01-07T02:24:17;99448.81;;;4.69;100.00
20424;BME280;10371;49.042;8.002;2024-01-07T02:25:17;99453.97;;;4.69;100.00
20424;BME280;10371;49.042;8.002;2024-01-07T02:26:17;99456.47;;;4.71;100.00
20424;BME280;10371;49.042;8.002;2024-01-07T02:27:18;99453.16;;;4.69;100.00
20424;BME280;10371;49.042;8.002;2024-01-07T02:28:18;99453.97;;;4.69;100.00
20424;BME280;10371;49.042;8.002;2024-01-07T02:29:19;99460.06;;;4.68;100.00
20424;BME280;10371;49.042;8.002;2024-01-07T02:30:19;99448.09;;;4.67;100.00
20424;BME280;10371;49.042;8.002;2024-01-07T02:31:19;99456.47;;;4.71;100.00
20424;BME280;10371;49.042;8.002;2024-01-07T02:32:19;99448.00;;;4.69;100.00
20424;BME280;10371;49.042;8.002;2024-01-07T02:33:20;99448.81;;;4.69;100.00
20424;BME280;10371;49.042;8.002;2024-01-07T02:34:20;99455.53;;;4.72;100.00
20424;BME280;10371;49.042;8.002;2024-01-07T02:35:26;99453.97;;;4.69;100.00
20424;BME280;10371;49.042;8.002;2024-01-07T02:36:26;99446.44;;;4.66;100.00
20424;BME280;10371;49.042;8.002;2024-01-07T02:37:27;99455.75;;;4.69;100.00
20424;BME280;10371;49.042;8.002;2024-01-07T02:38:27;99448.19;;;4.66;100.00
20424;BME280;10371;49.042;8.002;2024-01-07T02:39:27;99447.19;;;4.68;100.00
20424;BME280;10371;49.042;8.002;2024-01-07T02:40:27;99447.19;;;4.68;100.00
20424;BME280;10371;49.042;8.002;2024-01-07T02:41:28;99454.06;;;4.68;100.00
20424;BME280;10371;49.042;8.002;2024-01-07T02:42:28;99454.81;;;4.70;100.00
20424;BME280;10371;49.042;8.002;2024-01-07T02:43:28;99455.63;;;4.70;100.00
20424;BME280;10371;49.042;8.002;2024-01-07T02:44:28;99454.81;;;4.70;100.00
20424;BME280;10371;49.042;8.002;2024-01-07T02:45:29;99449.56;;;4.72;100.00
20424;BME280;10371;49.042;8.002;2024-01-07T02:46:30;99449.66;;;4.70;100.00
20424;BME280;10371;49.042;8.002;2024-01-07T02:47:30;99446.53;;;4.65;100.00
20424;BME280;10371;49.042;8.002;2024-01-07T02:48:31;99445.63;;;4.66;100.00
20424;BME280;10371;49.042;8.002;2024-01-07T02:49:31;99455.81;;;4.67;100.00
20424;BME280;10371;49.042;8.002;2024-01-07T02:50:32;99454.91;;;4.68;100.00
20424;BME280;10371;49.042;8.002;2024-01-07T02:51:32;99454.19;;;4.66;100.00
20424;BME280;10371;49.042;8.002;2024-01-07T02:52:33;99445.63;;;4.66;100.00
20424;BME280;10371;49.042;8.002;2024-01-07T02:53:33;99447.25;;;4.67;100.00
20424;BME280;10371;49.042;8.002;2024-01-07T02:54:33;99452.53;;;4.65;100.00
20424;BME280;10371;49.042;8.002;2024-01-07T02:55:34;99449.03;;;4.66;100.00
20424;BME280;10371;49.042;8.002;2024-01-07T02:56:34;99460.97;;;4.67;100.00
20424;BME280;10371;49.042;8.002;2024-01-07T02:57:34;99449.03;;;4.66;100.00
20424;BME280;10371;49.042;8.002;2024-01-07T02:58:35;99451.59;;;4.66;100.00
20424;BME280;10371;49.042;8.002;2024-01-07T02:59:35;99459.34;;;4.66;100.00
20424;BME280;10371;49.042;8.002;2024-01-07T03:00:35;99456.94;;;4.63;100.00
20424;BME280;10371;49.042;8.002;2024-01-07T03:01:35;99453.53;;;4.63;100.00
20424;BME280;10371;49.042;8.002;2024-01-07T03:02:40;99457.78;;;4.64;100.00
20424;BME280;10371;49.042;8.002;2024-01-07T03:03:40;99460.34;;;4.64;100.00
20424;BME280;10371;49.042;8.002;2024-01-07T03:04:40;99456.13;;;4.63;100.00
20424;BME280;10371;49.042;8.002;2024-01-07T03:05:41;99452.63;;;4.64;100.00
20424;BME280;10371;49.042;8.002;2024-01-07T03:06:41;99463.84;;;4.63;100.00
20424;BME280;10371;49.042;8.002;2024-01-07T03:07:41;99457.84;;;4.62;100.00
20424;BME280;10371;49.042;8.002;2024-01-07T03:08:42;99457.22;;;4.59;100.00
20424;BME280;10371;49.042;8.002;2024-01-07T03:09:43;99465.69;;;4.61;100.00
20424;BME280;10371;49.042;8.002;2024-01-07T03:10:43;99457.22;;;4.59;100.00
20424;BME280;10371;49.042;8.002;2024-01-07T03:11:43;99463.19;;;4.59;100.00
20424;BME280;10371;49.042;8.002;2024-01-07T03:12:44;99463.19;;;4.59;100.00
20424;BME280;10371;49.042;8.002;2024-01-07T03:13:44;99466.78;;;4.57;100.00
20424;BME280;10371;49.042;8.002;2024-01-07T03:14:44;99468.53;;;4.56;100.00
20424;BME280;10371;49.042;8.002;2024-01-07T03:15:45;99467.53;;;4.59;100.00
20424;BME280;10371;49.042;8.002;2024-01-07T03:16:45;99466.63;;;4.60;100.00
20424;BME280;10371;49.042;8.002;2024-01-07T03:17:45;99469.22;;;4.60;100.00
20424;BME280;10371;49.042;8.002;2024-01-07T03:18:46;99466.63;;;4.60;100.00
20424;BME280;10371;49.042;8.002;2024-01-07T03:19:46;99471.88;;;4.58;100.00
20424;BME280;10371;49.042;8.002;2024-01-07T03:20:46;99471.03;;;4.58;100.00
20424;BME280;10371;49.042;8.002;2024-01-07T03:21:48;99468.66;;;4.55;100.00
20424;BME280;10371;49.042;8.002;2024-01-07T03:22:48;99466.91;;;4.55;100.00
20424;BME280;10371;49.042;8.002;2024-01-07T03:23:50;99474.53;;;4.57;100.00
20424;BME280;10371;49.042;8.002;2024-01-07T03:24:50;99471.13;;;4.56;100.00
20424;BME280;10371;49.042;8.002;2024-01-07T03:25:50;99472.06;;;4.55;100.00
20424;BME280;10371;49.042;8.002;2024-01-07T03:26:51;99467.72;;;4.56;100.00
20424;BME280;10371;49.042;8.002;2024-01-07T03:27:51;99473.69;;;4.56;100.00
20424;BME280;10371;49.042;8.002;2024-01-07T03:28:51;99477.09;;;4.57;100.00
20424;BME280;10371;49.042;8.002;2024-01-07T03:29:51;99480.41;;;4.59;100.00
20424;BME280;10371;49.042;8.002;2024-01-07T03:30:51;99474.44;;;4.58;100.00
20424;BME280;10371;49.042;8.002;2024-01-07T03:31:52;99469.47;;;4.55;100.00
20424;BME280;10371;49.042;8.002;2024-01-07T03:32:53;99475.38;;;4.57;100.00
20424;BME280;10371;49.042;8.002;2024-01-07T03:33:53;99478.03;;;4.56;100.00
20424;BME280;10371;49.042;8.002;2024-01-07T03:34:53;99475.38;;;4.57;100.00
20424;BME280;10371;49.042;8.002;2024-01-07T03:35:54;99476.19;;;4.58;100.00
20424;BME280;10371;49.042;8.002;2024-01-07T03:36:54;99474.53;;;4.57;100.00
20424;BME280;10371;49.042;8.002;2024-01-07T03:37:54;99475.38;;;4.57;100.00
20424;BME280;10371;49.042;8.002;2024-01-07T03:38:54;99474.72;;;4.54;100.00
20424;BME280;10371;49.042;8.002;2024-01-07T03:39:55;99478.97;;;4.55;100.00
20424;BME280;10371;49.042;8.002;2024-01-07T03:40:55;99477.22;;;4.55;100.00
20424;BME280;10371;49.042;8.002;2024-01-07T03:41:55;99470.50;;;4.53;100.00
20424;BME280;10371;49.042;8.002;2024-01-07T03:42:56;99473.06;;;4.53;100.00
20424;BME280;10371;49.042;8.002;2024-01-07T03:43:56;99484.94;;;4.55;100.00
20424;BME280;10371;49.042;8.002;2024-01-07T03:44:56;99472.13;;;4.54;100.00
20424;BME280;10371;49.042;8.002;2024-01-07T03:45:57;99483.31;;;4.54;100.00
20424;BME280;10371;49.042;8.002;2024-01-07T03:46:57;99478.97;;;4.55;100.00
20424;BME280;10371;49.042;8.002;2024-01-07T03:47:58;99478.16;;;4.54;100.00
20424;BME280;10371;49.042;8.002;2024-01-07T03:48:58;99474.00;;;4.52;100.00
20424;BME280;10371;49.042;8.002;2024-01-07T03:49:58;99472.25;;;4.52;100.00
20424;BME280;10371;49.042;8.002;2024-01-07T03:50:58;99483.47;;;4.51;100.00
20424;BME280;10371;49.042;8.002;2024-01-07T03:51:59;99485.88;;;4.54;100.00
20424;BME280;10371;49.042;8.002;2024-01-07T03:52:59;99484.19;;;4.53;100.00
20424;BME280;10371;49.042;8.002;2024-01-07T03:53:59;99481.75;;;4.52;100.00
20424;BME280;10371;49.042;8.002;2024-01-07T03:55:00;99486.03;;;4.51;100.00
20424;BME280;10371;49.042;8.002;2024-01-07T03:56:00;99483.47;;;4.51;100.00
20424;BME280;10371;49.042;8.002;2024-01-07T03:57:01;99481.75;;;4.52;100.00
20424;BME280;10371;49.042;8.002;2024-01-07T03:58:01;99489.34;;;4.53;100.00
20424;BME280;10371;49.042;8.002;2024-01-07T03:59:01;99486.78;;;4.53;100.00
20424;BME280;10371;49.042;8.002;2024-01-07T04:00:02;99489.47;;;4.52;100.00
20424;BME280;10371;49.042;8.002;2024-01-07T04:01:04;99495.34;;;4.54;100.00
20424;BME280;10371;49.042;8.002;2024-01-07T04:02:06;99485.97;;;4.53;100.00
20424;BME280;10371;49.042;8.002;2024-01-07T04:03:06;99488.53;;;4.53;100.00
20424;BME280;10371;49.042;8.002;2024-01-07T04:04:06;99491.19;;;4.51;100.00
20424;BME280;10371;49.042;8.002;2024-01-07T04:05:07;99486.88;;;4.52;100.00
20424;BME280;10371;49.042;8.002;2024-01-07T04:06:07;99487.91;;;4.49;100.00
20424;BME280;10371;49.042;8.002;2024-01-07T04:07:08;99487.78;;;4.51;100.00
20424;BME280;10371;49.042;8.002;2024-01-07T04:08:11;99485.22;;;4.51;100.00
20424;BME280;10371;49.042;8.002;2024-01-07T04:09:12;99484.31;;;4.52;100.00
20424;BME280;10371;49.042;8.002;2024-01-07T04:10:12;99493.88;;;4.50;100.00
20424;BME280;10371;49.042;8.002;2024-01-07T04:11:12;99493.97;;;4.48;100.00
20424;BME280;10371;49.042;8.002;2024-01-07T04:12:13;99485.22;;;4.51;100.00
20424;BME280;10371;49.042;8.002;2024-01-07T04:13:13;99491.31;;;4.50;100.00
20424;BME280;10371;49.042;8.002;2024-01-07T04:14:14;99482.75;;;4.49;100.00
20424;BME280;10371;49.042;8.002;2024-01-07T04:15:15;99491.31;;;4.50;100.00
20424;BME280;10371;49.042;8.002;2024-01-07T04:16:17;99492.13;;;4.50;100.00
20424;BME280;10371;49.042;8.002;2024-01-07T04:17:17;99493.06;;;4.49;100.00
20424;BME280;10371;49.042;8.002;2024-01-07T04:18:17;99496.66;;;4.46;100.00
20424;BME280;10371;49.042;8.002;2024-01-07T04:19:18;99495.72;;;4.47;100.00
20424;BME280;10371;49.042;8.002;2024-01-07T04:20:18;99493.97;;;4.48;100.00
20424;BME280;10371;49.042;8.002;2024-01-07T04:21:18;99484.59;;;4.47;100.00
20424;BME280;10371;49.042;8.002;2024-01-07T04:22:19;99498.41;;;4.46;100.00
20424;BME280;10371;49.042;8.002;2024-01-07T04:23:19;99493.25;;;4.46;100.00
20424;BME280;10371;49.042;8.002;2024-01-07T04:24:19;99494.88;;;4.47;100.00
20424;BME280;10371;49.042;8.002;2024-01-07T04:25:19;99499.03;;;4.50;100.00
20424;BME280;10371;49.042;8.002;2024-01-07T04:26:20;99490.56;;;4.47;100.00
20424;BME280;10371;49.042;8.002;2024-01-07T04:27:20;99494.88;;;4.47;100.00
20424;BME280;10371;49.042;8.002;2024-01-07T04:28:20;99501.81;;;4.46;100.00
20424;BME280;10371;49.042;8.002;2024-01-07T04:29:20;99497.53;;;4.45;100.00
20424;BME280;10371;49.042;8.002;2024-01-07T04:30:21;99501.06;;;4.44;100.00
20424;BME280;10371;49.042;8.002;2024-01-07T04:31:21;99495.09;;;4.44;100.00
20424;BME280;10371;49.042;8.002;2024-01-07T04:32:21;99498.47;;;4.44;100.00
20424;BME280;10371;49.042;8.002;2024-01-07T04:33:22;99496.72;;;4.45;100.00
20424;BME280;10371;49.042;8.002;2024-01-07T04:34:22;99495.81;;;4.46;100.00
20424;BME280;10371;49.042;8.002;2024-01-07T04:35:22;99501.06;;;4.44;100.00
20424;BME280;10371;49.042;8.002;2024-01-07T04:36:23;99496.09;;;4.41;100.00
20424;BME280;10371;49.042;8.002;2024-01-07T04:37:24;99495.09;;;4.44;100.00
20424;BME280;10371;49.042;8.002;2024-01-07T04:38:24;99495.16;;;4.42;100.00
20424;BME280;10371;49.042;8.002;2024-01-07T04:39:24;99498.56;;;4.43;100.00
20424;BME280;10371;49.042;8.002;2024-01-07T04:40:25;99495.16;;;4.42;100.00
20424;BME280;10371;49.042;8.002;2024-01-07T04:41:25;99496.16;;;4.40;100.00
20424;BME280;10371;49.042;8.002;2024-01-07T04:42:25;99503.91;;;4.40;100.00
20424;BME280;10371;49.042;8.002;2024-01-07T04:43:26;99503.06;;;4.39;100.00
20424;BME280;10371;49.042;8.002;2024-01-07T04:44:26;99504.84;;;4.39;100.00
20424;BME280;10371;49.042;8.002;2024-01-07T04:45:26;99501.25;;;4.41;100.00
20424;BME280;10371;49.042;8.002;2024-01-07T04:46:26;99504.75;;;4.40;100.00
20424;BME280;10371;49.042;8.002;2024-01-07T04:48:27;99508.03;;;4.42;100.00
20424;BME280;10371;49.042;8.002;2024-01-07T04:49:28;99509.72;;;4.43;100.00
20424;BME280;10371;49.042;8.002;2024-01-07T04:50:28;99510.53;;;4.44;100.00
20424;BME280;10371;49.042;8.002;2024-01-07T04:51:28;99508.03;;;4.42;100.00
20424;BME280;10371;49.042;8.002;2024-01-07T04:52:29;99512.31;;;4.43;100.00
20424;BME280;10371;49.042;8.002;2024-01-07T04:53:29;99508.72;;;4.46;100.00
20424;BME280;10371;49.042;8.002;2024-01-07T04:54:29;99520.41;;;4.52;100.00
20424;BME280;10371;49.042;8.002;2024-01-07T04:55:30;99513.69;;;4.49;100.00
20424;BME280;10371;49.042;8.002;2024-01-07T04:56:30;99513.69;;;4.49;100.00
20424;BME280;10371;49.042;8.002;2024-01-07T04:57:30;99514.69;;;4.46;100.00
20424;BME280;10371;49.042;8.002;2024-01-07T04:58:30;99511.28;;;4.46;100.00
20424;BME280;10371;49.042;8.002;2024-01-07T04:59:31;99521.41;;;4.49;100.00
20424;BME280;10371;49.042;8.002;2024-01-07T05:00:31;99514.69;;;4.46;100.00
20424;BME280;10371;49.042;8.002;2024-01-07T05:01:34;99518.91;;;4.47;100.00
20424;BME280;10371;49.042;8.002;2024-01-07T05:02:35;99513.00;;;4.45;100.00
20424;BME280;10371;49.042;8.002;2024-01-07T05:03:35;99512.19;;;4.45;100.00
20424;BME280;10371;49.042;8.002;2024-01-07T05:04:36;99519.03;;;4.46;100.00
20424;BME280;10371;49.042;8.002;2024-01-07T05:05:36;99518.16;;;4.45;100.00
20424;BME280;10371;49.042;8.002;2024-01-07T05:06:38;99521.69;;;4.44;100.00
20424;BME280;10371;49.042;8.002;2024-01-07T05:07:38;99518.34;;;4.42;100.00
20424;BME280;10371;49.042;8.002;2024-01-07T05:08:40;99523.50;;;4.42;100.00
20424;BME280;10371;49.042;8.002;2024-01-07T05:09:41;99522.69;;;4.42;100.00
20424;BME280;10371;49.042;8.002;2024-01-07T05:10:41;99521.75;;;4.43;100.00
20424;BME280;10371;49.042;8.002;2024-01-07T05:11:41;99519.09;;;4.44;100.00
20424;BME280;10371;49.042;8.002;2024-01-07T05:12:42;99520.22;;;4.40;100.00
20424;BME280;10371;49.042;8.002;2024-01-07T05:13:42;99522.06;;;4.38;100.00
20424;BME280;10371;49.042;8.002;2024-01-07T05:14:42;99523.69;;;4.39;100.00
20424;BME280;10371;49.042;8.002;2024-01-07T05:15:46;99523.88;;;4.36;100.00
20424;BME280;10371;49.042;8.002;2024-01-07T05:16:53;99528.09;;;4.37;100.00
20424;BME280;10371;49.042;8.002;2024-01-07T05:17:54;99529.16;;;4.35;100.00
20424;BME280;10371;49.042;8.002;2024-01-07T05:18:55;99530.03;;;4.34;100.00
20424;BME280;10371;49.042;8.002;2024-01-07T05:19:55;99528.41;;;4.33;100.00
20424;BME280;10371;49.042;8.002;2024-01-07T05:20:55;99529.84;;;4.37;100.00
20424;BME280;10371;49.042;8.002;2024-01-07T05:21:55;99530.88;;;4.34;100.00